Tiempo atmosférico en la estación meteorológica de Alpedrete, Madrid (924 m.)



Fecha
DESCASC
Temp. máxima en grados centígrados (hora)
DESCASC
Temp. mínima en grados centígrados (hora)
DESCASC
Temp. media en grados centígrados
DESCASC
Racha de viento máxima en m/sg (hora)
DESCASC
Velocidad máxima media en intervalos de 10 minutos(hora)
DESCASC
Precipitaciones diarias en mm
DESCASC
Precipitaciones de 00:00 a 06:00 en mm
DESCASC
Precipitaciones de 06:00 a 12:00 en mm
DESCASC
Precipitaciones de 12:00 a 18:00 en mm
DESCASC
Precipitaciones de 18:00 a 24:00 en mm
DESCASC
16-06-2019 28.1 (17:50) 12.7 (07:00) 20.4 8.06 (04:40) 4.17 (04:20) 0 0 0 0 0
15-06-2019 25.9 (17:50) 9.8 (06:50) 17.8 13.06 (02:20) 6.39 (02:10) 0 0 0 0 0
14-06-2019 23.5 (17:30) 10.4 (07:10) 16.9 10 (14:20) 4.72 (01:20) 0 0 0 0 0
13-06-2019 25.6 (17:00) 10.2 (00:00) 17.9 8.89 (15:50) 3.89 (16:30) 0 0 0 0 0
12-06-2019 23.3 (18:30) 6.5 (00:00) 14.9 9.72 (19:00) 3.33 (14:50) 0 0 0 0 0
11-06-2019 19.4 (17:40) 10.7 (00:00) 15 13.89 (14:00) 6.94 (13:50) 0 0 0 0 0
10-06-2019 22.6 (18:00) 10.7 (00:00) 16.7 12.5 (01:50) 6.11 (01:10) 0 0 0 0 0
09-06-2019 26.7 (17:10) 11.1 (00:00) 18.9 11.39 (22:40) 6.11 (22:40) 0 0 0 0 0
08-06-2019 26.2 (16:40) 8.5 (00:00) 17.4 8.89 (15:50) 3.89 (13:30) 0 0 0 0 0
07-06-2019 19.5 (19:00) 7.4 (00:00) 13.5 12.5 (09:30) 7.22 (07:50) 1.4 1.4 0 0 0
06-06-2019 21.2 (18:40) 7.3 (00:00) 14.3 11.67 (16:40) 5.28 (19:20) 0 0 0 0 0
05-06-2019 18.5 (18:40) 8.9 (00:00) 13.7 15.83 (04:00) 8.89 (12:00) 0 0 0 0 0
04-06-2019 26.5 (15:50) 15.2 (00:00) 20.8 11.39 (17:00) 5 (20:40) 0 0 0 0 0
03-06-2019 31.2 (14:30) 17.4 (00:00) 24.3 12.22 (15:40) 5.28 (02:00) 0 0 0 0 0
02-06-2019 32.9 (17:50) 15.1 (00:00) 24 7.5 (15:30) 3.89 (20:20) 0 0 0 0 0
01-06-2019 33 (19:10) 13 (00:00) 23 7.22 (15:10) 2.5 (15:10) 0 0 0 0 0
31-05-2019 31.9 (17:10) 13.4 (00:00) 22.6 7.78 (01:40) 4.17 (01:20) 0 0 0 0 0
30-05-2019 31.2 (18:50) 8.9 (00:00) 20.1 6.67 (17:10) 3.06 (17:10) 0 0 0 0 0
29-05-2019 25.9 (17:50) 7.8 (00:00) 16.8 10.28 (18:10) 5.83 (18:20) 0 0 0 0 0
28-05-2019 23.4 (17:00) 10.3 (00:00) 16.8 12.5 (15:10) 6.39 (15:40) 0 0 0 0 0
27-05-2019 26.4 (17:50) 12 (00:00) 19.2 9.72 (13:10) 5.28 (11:00) 0 0 0 0 0
26-05-2019 24.6 (15:10) 7.5 (00:00) 16.1 10.83 (17:00) 5.28 (16:50) 0 0 0 0 0
25-05-2019 23.5 (17:00) 7 (00:00) 15.3 10.56 (21:00) 5.28 (12:00) 0 0 0 0 0
24-05-2019 21.4 (15:40) 12 (00:00) 16.7 14.72 (12:40) 7.5 (12:50) 0 0 0 0 0
23-05-2019 27.3 (17:00) 13.8 (00:00) 20.5 10.28 (14:30) 5.28 (23:59) 0 0 0 0 0
22-05-2019 27.3 (16:50) 9.6 (00:00) 18.4 9.17 (02:10) 6.11 (02:30) 0 0 0 0 0
21-05-2019 23 (20:10) 12.1 (06:40) 17.6 7.78 (03:40) 4.44 (03:40) 0 0 0 0 0

Gráficas

Temp. máximas Temp. mínimas Temp. medias Precipitaciones Rachas de viento máximas Velocidades máximas media en intervalos de 10 minutos

Datos horarios

Fecha y hora oficial Temperatura (ºC) Velocidad del viento (km/h) Dirección del viento Racha (km/h) Dirección de racha Precipitación (mm) Presión (hPa) Tendencia (hPa) Humedad (%)
2019-06-19 23:00:00 20.4 10 Noroeste 23 Norte 0 -- -- 48
2019-06-19 22:00:00 21.2 9 Noroeste 24 Noroeste 0 -- -- 46
2019-06-19 21:00:00 23.3 15 Noroeste 26 Oeste 0 -- -- 42
2019-06-19 20:00:00 23.2 6 Sur 20 Sur 0 -- -- 42
2019-06-19 19:00:00 23.8 9 Sudoeste 25 Sudoeste 0 -- -- 40
2019-06-19 18:00:00 25.6 9 Sudoeste 28 Sur 0 -- -- 38
2019-06-19 17:00:00 25.7 12 Sudoeste 26 Sur 0 -- -- 38
2019-06-19 16:00:00 25.3 9 Sudoeste 24 Sudoeste 0 -- -- 40
2019-06-19 15:00:00 24 9 Sudoeste -- -- -- -- -- 43
2019-06-19 14:00:00 24.4 10 Sur 28 Sudoeste 0 -- -- 42
2019-06-19 13:00:00 22.9 13 Sur 28 Sur 0 -- -- 44
2019-06-19 12:00:00 22.6 11 Sur 25 Sudoeste 0 -- -- 45
2019-06-19 11:00:00 21.6 7 Sur 19 Sur 0 -- -- 48
2019-06-19 10:00:00 22.3 5 Sur 13 Sur 0 -- -- 47
2019-06-19 09:00:00 20.1 5 Sudoeste 12 Oeste 0 -- -- 53
2019-06-19 08:00:00 18.4 3 Norte 6 Oeste 0 -- -- 58
2019-06-19 07:00:00 13.6 2 Noroeste 9 Noroeste 0 -- -- 69
2019-06-19 06:00:00 13.3 0 Calma 6 Sudeste 0 -- -- 69
2019-06-19 05:00:00 14.2 0 Calma 9 Norte 0 -- -- 67
2019-06-19 04:00:00 15.8 0 Calma 4 Nordeste 0 -- -- 61
2019-06-19 03:00:00 16.7 0 Calma 8 Norte 0 -- -- 59
2019-06-19 02:00:00 17.8 6 Noroeste 13 Noroeste 0 -- -- 55
2019-06-19 01:00:00 18.7 5 Noroeste 19 Oeste 0 -- -- 49
2019-06-19 00:00:00 18.7 0 Calma 13 Oeste 0 -- -- 49
2019-06-18 23:00:00 20.5 5 Oeste 12 Oeste 0 -- -- 45
2019-06-18 22:00:00 21.5 5 Oeste 21 Sudoeste 0 -- -- 41
2019-06-18 21:00:00 23.3 10 Oeste 30 Sudoeste 0 -- -- 37
2019-06-18 20:00:00 25.8 10 Oeste 31 Sudoeste 0 -- -- 30
2019-06-18 19:00:00 27 11 Sudoeste 31 Sudoeste 0 -- -- 22
2019-06-18 18:00:00 27.4 13 Sudoeste 38 Sudoeste 0 -- -- 18
2019-06-18 17:00:00 27.4 15 Sur 34 Sudoeste 0 -- -- 15
2019-06-18 16:00:00 27.2 15 Sur 36 Sudoeste 0 -- -- 15
2019-06-18 15:00:00 26.2 15 Sudoeste 41 Sur 0 -- -- 17
2019-06-18 14:00:00 25.1 15 Sur 30 Sur 0 -- -- 18
2019-06-18 13:00:00 24.8 14 Sur 30 Sudoeste 0 -- -- 22
2019-06-18 12:00:00 24.9 7 Sudoeste 22 Sudeste 0 -- -- 22
2019-06-18 11:00:00 24.1 6 Sudoeste 20 Sudoeste 0 -- -- 25
2019-06-18 10:00:00 22.9 8 Sur 18 Sur 0 -- -- 28
2019-06-18 09:00:00 21.3 4 Sudeste 9 Sudoeste 0 -- -- 31
2019-06-18 08:00:00 20.6 2 Este 5 Este 0 -- -- 32
2019-06-18 07:00:00 14.7 0 Calma 5 Sudoeste 0 -- -- 46
2019-06-18 06:00:00 16 0 Calma 4 Sudoeste 0 -- -- 40
2019-06-18 05:00:00 16.5 0 Calma 6 Norte 0 -- -- 40
2019-06-18 04:00:00 17.7 2 Norte 7 Norte 0 -- -- 38
2019-06-18 03:00:00 20.4 0 Calma 15 Noroeste 0 -- -- 31
2019-06-18 02:00:00 22.1 8 Noroeste 18 Noroeste 0 -- -- 27
2019-06-18 01:00:00 22.3 5 Noroeste 15 Noroeste 0 -- -- 28
2019-06-18 00:00:00 22.3 4 Noroeste 8 Noroeste 0 -- -- 28
2019-06-17 23:00:00 23.1 5 Norte 11 Noroeste 0 -- -- 27
2019-06-17 22:00:00 24.9 4 Noroeste 13 Oeste 0 -- -- 26
2019-06-17 21:00:00 26.5 3 Oeste 14 Sur 0 -- -- 23
2019-06-17 20:00:00 27.4 6 Sudoeste 21 Sudoeste 0 -- -- 21
2019-06-17 19:00:00 29.7 7 Sudoeste 24 Sudoeste 0 -- -- 20
2019-06-17 18:00:00 29.7 8 Oeste 27 Sudoeste 0 -- -- 20
2019-06-17 17:00:00 28.7 11 Sur 31 Sur 0 -- -- 19
2019-06-17 16:00:00 27.5 13 Sur 32 Sudoeste 0 -- -- 20
2019-06-17 15:00:00 27.7 11 Sudoeste 27 Sudoeste 0 -- -- 20
2019-06-17 14:00:00 27 10 Sur 29 Sur 0 -- -- 21
2019-06-17 13:00:00 26.8 9 Sur 25 Sur 0 -- -- 24
2019-06-17 12:00:00 26.4 5 Sudoeste 17 Sudeste 0 -- -- 25
2019-06-17 11:00:00 25.6 4 Sudoeste 12 Sur 0 -- -- 27
2019-06-17 10:00:00 24.2 2 Oeste 6 Oeste 0 -- -- 31
2019-06-17 09:00:00 22.5 2 Sudoeste 4 Sur 0 -- -- 31
2019-06-17 08:00:00 17.6 0 Calma 6 Norte 0 -- -- 35
2019-06-17 07:00:00 12.4 0 Calma 4 Norte 0 -- -- 47
2019-06-17 06:00:00 13.1 0 Calma 5 Norte 0 -- -- 44
2019-06-17 05:00:00 14.1 0 Calma 5 Noroeste 0 -- -- 41
2019-06-17 04:00:00 14.4 0 Calma 8 Nordeste 0 -- -- 42
2019-06-17 03:00:00 15.4 0 Calma 10 Norte 0 -- -- 40
2019-06-17 02:00:00 16.5 4 Noroeste 11 Norte 0 -- -- 37
2019-06-17 01:00:00 17.7 6 Noroeste 10 Norte 0 -- -- 32
2019-06-17 00:00:00 17.4 6 Noroeste 10 Norte 0 -- -- 33
2019-06-16 23:00:00 19.7 5 Norte 10 Norte 0 -- -- 28
2019-06-16 22:00:00 22.9 0 Calma 7 Sudoeste 0 -- -- 25
2019-06-16 21:00:00 24.7 4 Oeste 19 Oeste 0 -- -- 21
2019-06-16 20:00:00 25.6 8 Sur 22 Sur 0 -- -- 21
2019-06-16 19:00:00 27.3 6 Sudoeste 21 Sur 0 -- -- 19
2019-06-16 18:00:00 28.1 5 Sur 25 Sur 0 -- -- 18
2019-06-16 17:00:00 27.5 6 Sudoeste 23 Sudoeste 0 -- -- 19
2019-06-16 16:00:00 27.8 5 Sur 23 Sur 0 -- -- 20
2019-06-16 15:00:00 27.2 7 Sudoeste 25 Sudoeste 0 -- -- 22
2019-06-16 14:00:00 25.8 7 Este 23 Sudeste 0 -- -- 23
2019-06-16 13:00:00 24.3 11 Sudeste 23 Este 0 -- -- 25
2019-06-16 12:00:00 24.4 8 Sur 17 Sudoeste 0 -- -- 24
2019-06-16 11:00:00 23.2 6 Sudeste 15 Sudeste 0 -- -- 28
2019-06-16 10:00:00 21.6 5 Este 21 Este 0 -- -- 32
2019-06-16 09:00:00 20.7 5 Este 13 Este 0 -- -- 34
2019-06-16 08:00:00 16.3 3 Noroeste 8 Oeste 0 -- -- 44
2019-06-16 07:00:00 12.7 2 Oeste 6 Oeste 0 -- -- 51
2019-06-16 06:00:00 13.8 4 Oeste 16 Este 0 -- -- 47
2019-06-16 05:00:00 15.8 13 Este 29 Este 0 -- -- 42
2019-06-16 04:00:00 16 9 Este 18 Nordeste 0 -- -- 38
2019-06-16 03:00:00 12.9 0 Calma 2 Norte 0 -- -- 45
2019-06-16 02:00:00 13.5 0 Calma 4 Norte 0 -- -- 42
2019-06-16 01:00:00 13.7 3 Norte 7 Norte 0 -- -- 42
2019-06-16 00:00:00 15.8 2 Noroeste 9 Norte 0 -- -- 36
2019-06-15 23:00:00 17.9 3 Noroeste 14 Noroeste 0 -- -- 33
2019-06-15 22:00:00 19.4 8 Oeste 17 Oeste 0 -- -- 32
2019-06-15 21:00:00 22.7 10 Oeste 21 Sur 0 -- -- 27
2019-06-15 20:00:00 24.6 8 Sudoeste 18 Sudoeste 0 -- -- 27
2019-06-15 19:00:00 25.1 8 Sudoeste 21 Sudeste 0 -- -- 26
2019-06-15 18:00:00 25.4 8 Sudoeste 21 Oeste 0 -- -- 25
2019-06-15 17:00:00 24.6 9 Sudoeste 20 Sudoeste 0 -- -- 26
2019-06-15 16:00:00 23.4 6 Sudoeste 23 Sudeste 0 -- -- 27
2019-06-15 15:00:00 22.5 9 Sudeste 20 Oeste 0 -- -- 29
2019-06-15 14:00:00 21.1 8 Oeste 18 Noroeste 0 -- -- 29
2019-06-15 13:00:00 21.3 4 Sur 18 Sur 0 -- -- 31
2019-06-15 12:00:00 19.3 6 Sur 17 Sudeste 0 -- -- 35
2019-06-15 11:00:00 17.8 6 Sur 14 Sudeste 0 -- -- 40
2019-06-15 10:00:00 17.7 4 Oeste 15 Oeste 0 -- -- 40
2019-06-15 09:00:00 13.4 10 Noroeste 23 Noroeste 0 -- -- 54
2019-06-15 08:00:00 11.3 13 Noroeste 22 Noroeste 0 -- -- 61
2019-06-15 07:00:00 9.8 12 Noroeste 25 Noroeste 0 -- -- 67
2019-06-15 06:00:00 10.6 15 Noroeste 32 Noroeste 0 -- -- 61
2019-06-15 05:00:00 11 18 Noroeste 40 Oeste 0 -- -- 61
2019-06-15 04:00:00 11.3 21 Noroeste 35 Oeste 0 -- -- 60
2019-06-15 03:00:00 11.9 17 Noroeste 47 Noroeste 0 -- -- 55
2019-06-15 02:00:00 12.5 21 Noroeste 40 Noroeste 0 -- -- 52
2019-06-15 01:00:00 13.6 15 Noroeste 37 Noroeste 0 -- -- 47
2019-06-15 00:00:00 15.1 13 Oeste 23 Noroeste 0 -- -- 43
2019-06-14 23:00:00 15.9 8 Oeste 15 Noroeste 0 -- -- 38
2019-06-14 22:00:00 16.4 6 Sudoeste 22 Sudoeste 0 -- -- 37
2019-06-14 21:00:00 19 13 Sudoeste 30 Oeste 0 -- -- 30
2019-06-14 20:00:00 20.8 14 Sudoeste 32 Sudoeste 0 -- -- 25
2019-06-14 19:00:00 22.4 11 Sudoeste 29 Sudeste 0 -- -- 25
2019-06-14 18:00:00 22.6 13 Sudoeste 32 Sur 0 -- -- 24
2019-06-14 17:00:00 22.9 12 Sudoeste 32 Sudoeste 0 -- -- 25
2019-06-14 16:00:00 22.5 13 Oeste 33 Sur 0 -- -- 25
2019-06-14 15:00:00 21.7 14 Sur 36 Sudoeste 0 -- -- 25
2019-06-14 14:00:00 21.3 13 Sudoeste 28 Sur 0 -- -- 27
2019-06-14 13:00:00 20.2 12 Oeste 34 Oeste 0 -- -- 29
2019-06-14 12:00:00 20.4 11 Sudoeste 25 Sur 0 -- -- 28
2019-06-14 11:00:00 19.9 10 Sudoeste 29 Sudoeste 0 -- -- 29
2019-06-14 10:00:00 19.2 12 Sudoeste 21 Sur 0 -- -- 25
2019-06-14 09:00:00 18.1 5 Sur 10 Sudeste 0 -- -- 34
2019-06-14 08:00:00 14.8 0 Calma 5 Este 0 -- -- 39
2019-06-14 07:00:00 10.6 3 Noroeste 14 Sudoeste 0 -- -- 47
2019-06-14 06:00:00 11.5 2 Sur 6 Norte 0 -- -- 42
2019-06-14 05:00:00 12.4 0 Calma 5 Norte 0 -- -- 39
2019-06-14 04:00:00 13.6 0 Calma 6 Nordeste 0 -- -- 34
2019-06-14 03:00:00 15.9 3 Nordeste 8 Oeste 0 -- -- 29
2019-06-14 02:00:00 17.8 3 Nordeste 30 Noroeste 0 -- -- 25
2019-06-14 01:00:00 18.7 10 Noroeste 35 Noroeste 0 -- -- 23
2019-06-14 00:00:00 19 12 Noroeste 22 Noroeste 0 -- -- 23
2019-06-13 23:00:00 18.9 9 Noroeste 24 Norte 0 -- -- 24
2019-06-13 22:00:00 20.2 7 Noroeste 18 Oeste 0 -- -- 25
2019-06-13 21:00:00 21.6 6 Oeste 24 Oeste 0 -- -- 27
2019-06-13 20:00:00 23 10 Oeste 22 Sudoeste 0 -- -- 25
2019-06-13 19:00:00 25 13 Oeste 29 Oeste 0 -- -- 21
2019-06-13 18:00:00 24.3 11 Oeste 31 Sudoeste 0 -- -- 22
2019-06-13 17:00:00 25.6 10 Sudoeste 31 Sur 0 -- -- 19
2019-06-13 16:00:00 24.6 11 Sudoeste 32 Sudoeste 0 -- -- 20
2019-06-13 15:00:00 23.8 13 Sur 28 Sur 0 -- -- 24
2019-06-13 14:00:00 22.7 10 Sur 29 Sur 0 -- -- 32
2019-06-13 13:00:00 21.7 10 Sur 22 Sur 0 -- -- 34
2019-06-13 12:00:00 20.4 6 Sudeste 18 Sur 0 -- -- 35
2019-06-13 11:00:00 18.4 8 Sudeste 29 Este 0 -- -- 52
2019-06-13 10:00:00 16.8 7 Este 20 Sudeste 0 -- -- 57
2019-06-13 09:00:00 14.2 10 Este 20 Este 0 -- -- 69
2019-06-13 08:00:00 12.5 10 Este 20 Este 0 -- -- 72
2019-06-13 07:00:00 10.3 2 Sudoeste 14 Este 0 -- -- 72
2019-06-13 06:00:00 10.5 2 Sudeste 6 Nordeste 0 -- -- 68
2019-06-13 05:00:00 10.4 0 Calma 5 Norte 0 -- -- 60
2019-06-13 04:00:00 11.5 3 Norte 19 Nordeste 0 -- -- 49
2019-06-13 03:00:00 13.2 9 Sudeste 18 Este 0 -- -- 43
2019-06-13 02:00:00 12.2 2 Norte 5 Norte 0 -- -- 37
2019-06-13 01:00:00 13.1 0 Calma 9 Noroeste 0 -- -- 35
2019-06-13 00:00:00 14.6 0 Calma 7 Noroeste 0 -- -- 31
2019-06-12 23:00:00 15.2 6 Noroeste 10 Noroeste 0 -- -- 31
2019-06-12 22:00:00 18.7 4 Oeste 15 Sudoeste 0 -- -- 26
2019-06-12 21:00:00 21.7 8 Oeste 21 Sudoeste 0 -- -- 21
2019-06-12 20:00:00 23 9 Sudoeste 22 Sur 0 -- -- 17
2019-06-12 19:00:00 22.9 10 Sur 35 Sur 0 -- -- 19
2019-06-12 18:00:00 22.2 7 Sudoeste 24 Sur 0 -- -- 20
2019-06-12 17:00:00 22.5 10 Sur 24 Sudoeste 0 -- -- 21
2019-06-12 16:00:00 22.6 4 Oeste 30 Sur 0 -- -- 23
2019-06-12 15:00:00 20.5 7 Sur 26 Sudoeste 0 -- -- 27
2019-06-12 14:00:00 18.8 8 Sur 20 Sudoeste 0 -- -- 30
2019-06-12 13:00:00 18.3 8 Sudoeste 26 Sur 0 -- -- 33
2019-06-12 12:00:00 16.8 7 Sur 22 Sur 0 -- -- 38
2019-06-12 11:00:00 16.7 7 Sur 18 Sur 0 -- -- 40
2019-06-12 10:00:00 15.6 5 Sur 13 Este 0 -- -- 42
2019-06-12 09:00:00 13.9 4 Sudeste 11 Sudeste 0 -- -- 43
2019-06-12 08:00:00 10.8 3 Noroeste 11 Noroeste 0 -- -- 50
2019-06-12 07:00:00 7.3 4 Noroeste 10 Noroeste 0 -- -- 60
2019-06-12 06:00:00 8.5 7 Noroeste 20 Norte 0 -- -- 56
2019-06-12 05:00:00 7.6 5 Norte 14 Noroeste 0 -- -- 56
2019-06-12 04:00:00 7.1 3 Norte 6 Norte 0 -- -- 56
2019-06-12 03:00:00 8.4 0 Calma 4 Noroeste 0 -- -- 53
2019-06-12 02:00:00 9 0 Calma 10 Noroeste 0 -- -- 50
2019-06-12 01:00:00 10 7 Noroeste 12 Noroeste 0 -- -- 47
2019-06-12 00:00:00 10.7 3 Oeste 9 Noroeste 0 -- -- 47
2019-06-11 23:00:00 12.6 3 Norte 15 Norte 0 -- -- 39
2019-06-11 22:00:00 14.2 3 Norte 18 Noroeste 0 -- -- 35
2019-06-11 21:00:00 17.7 6 Norte 24 Noroeste 0 -- -- 28
2019-06-11 20:00:00 18.6 9 Norte 30 Noroeste 0 -- -- 27
2019-06-11 19:00:00 18.1 12 Noroeste 35 Norte 0 -- -- 28
2019-06-11 18:00:00 18.6 13 Norte 27 Norte 0 -- -- 28
2019-06-11 17:00:00 17.9 12 Noroeste 32 Norte 0 -- -- 29
2019-06-11 16:00:00 17.2 20 Noroeste 41 Norte 0 -- -- 31
2019-06-11 15:00:00 17.1 19 Noroeste 48 Norte 0 -- -- 32
2019-06-11 14:00:00 16.1 24 Noroeste 50 Noroeste 0 -- -- 37
2019-06-11 13:00:00 16.5 21 Noroeste 38 Norte 0 -- -- 34
2019-06-11 12:00:00 16.3 12 Noroeste 36 Norte 0 -- -- 42
2019-06-11 11:00:00 15.4 16 Norte 34 Norte 0 -- -- 44
2019-06-11 10:00:00 13.7 9 Noroeste 36 Norte 0 -- -- 51
2019-06-11 09:00:00 12.9 10 Norte 35 Noroeste 0 -- -- 55
2019-06-11 08:00:00 12.1 15 Noroeste 37 Noroeste 0 -- -- 61
2019-06-11 07:00:00 12.9 10 Norte 33 Norte 0 -- -- 54
2019-06-11 06:00:00 13.1 8 Noroeste 33 Noroeste 0 -- -- 54
2019-06-11 05:00:00 13.6 19 Noroeste 39 Oeste 0 -- -- 51
2019-06-11 04:00:00 14.1 21 Noroeste 49 Noroeste 0 -- -- 46
2019-06-11 03:00:00 14.5 23 Noroeste 38 Noroeste 0 -- -- 42
2019-06-11 02:00:00 15.3 18 Noroeste 37 Noroeste 0 -- -- 35
2019-06-11 01:00:00 16.2 21 Noroeste 39 Noroeste 0 -- -- 31
2019-06-11 00:00:00 17.1 20 Noroeste 34 Noroeste 0 -- -- 31
2019-06-10 23:00:00 16.8 11 Oeste 18 Norte 0 -- -- 33
2019-06-10 22:00:00 18.6 10 Noroeste 24 Noroeste 0 -- -- 28
2019-06-10 21:00:00 20.9 12 Noroeste 29 Oeste 0 -- -- 24
2019-06-10 20:00:00 21.7 17 Noroeste 34 Noroeste 0 -- -- 23
2019-06-10 19:00:00 22.3 16 Noroeste 33 Noroeste 0 -- -- 22
2019-06-10 18:00:00 22.6 15 Noroeste 33 Noroeste 0 -- -- 23
2019-06-10 17:00:00 21.8 21 Noroeste 37 Oeste 0 -- -- 26
2019-06-10 16:00:00 21.5 19 Oeste 35 Oeste 0 -- -- 28
2019-06-10 15:00:00 20.4 19 Oeste 34 Oeste 0 -- -- 32
2019-06-10 14:00:00 19.9 21 Oeste 37 Noroeste 0 -- -- 35
2019-06-10 13:00:00 19.6 16 Noroeste 34 Oeste 0 -- -- 37
2019-06-10 12:00:00 17.7 20 Noroeste 34 Oeste 0 -- -- 46
2019-06-10 11:00:00 15.9 21 Noroeste 34 Oeste 0 -- -- 54
2019-06-10 10:00:00 15.5 15 Noroeste 27 Noroeste 0 -- -- 56
2019-06-10 09:00:00 14.8 10 Noroeste 20 Noroeste 0 -- -- 59
2019-06-10 08:00:00 13 9 Noroeste 20 Noroeste 0 -- -- 67
2019-06-10 07:00:00 10.8 10 Noroeste 21 Noroeste 0 -- -- 76
2019-06-10 06:00:00 11 11 Noroeste 25 Noroeste 0 -- -- 74
2019-06-10 05:00:00 12 16 Noroeste 27 Noroeste 0 -- -- 67
2019-06-10 04:00:00 13.2 14 Noroeste 24 Oeste 0 -- -- 61
2019-06-10 03:00:00 14.1 13 Noroeste 39 Norte 0 -- -- 53
2019-06-10 02:00:00 15.3 19 Noroeste 45 Noroeste 0 -- -- 47
2019-06-10 01:00:00 15.9 21 Noroeste 41 Noroeste 0 -- -- 44
2019-06-10 00:00:00 16.8 19 Noroeste 36 Oeste 0 -- -- 41
2019-06-09 23:00:00 17.9 18 Noroeste 41 Noroeste 0 -- -- 37
2019-06-09 22:00:00 19.3 12 Noroeste 39 Noroeste 0 -- -- 32
2019-06-09 21:00:00 21.6 17 Noroeste 35 Noroeste 0 -- -- 28
2019-06-09 20:00:00 22.7 18 Noroeste 29 Oeste 0 -- -- 28
2019-06-09 19:00:00 24.2 17 Oeste 32 Noroeste 0 -- -- 25
2019-06-09 18:00:00 24.7 11 Oeste 37 Noroeste 0 -- -- 24
2019-06-09 17:00:00 26.1 6 Norte 30 Oeste 0 -- -- 21
2019-06-09 16:00:00 25.3 11 Sur 29 Sudeste 0 -- -- 17
2019-06-09 15:00:00 24.3 12 Sur 27 Sur 0 -- -- 18
2019-06-09 14:00:00 24.2 9 Sur 28 Sur 0 -- -- 18
2019-06-09 13:00:00 23 10 Sur 33 Sur 0 -- -- 18
2019-06-09 12:00:00 22 13 Sur 28 Sur 0 -- -- 23
2019-06-09 11:00:00 21 6 Sudoeste 16 Sur 0 -- -- 40
2019-06-09 10:00:00 20 3 Sur 7 Sudoeste 0 -- -- 50
2019-06-09 09:00:00 18.2 0 Calma 5 Este 0 -- -- 56
2019-06-09 08:00:00 14.7 0 Calma 4 Noroeste 0 -- -- 66
2019-06-09 07:00:00 11.2 0 Calma 5 Norte 0 -- -- 78
2019-06-09 06:00:00 11.7 3 Este 5 Este 0 -- -- 75
2019-06-09 05:00:00 12.6 0 Calma 4 Noroeste 0 -- -- 70
2019-06-09 04:00:00 13.7 0 Calma 6 Sur 0 -- -- 68
2019-06-09 03:00:00 15.7 3 Sudeste 10 Sur 0 -- -- 62
2019-06-09 02:00:00 17.2 3 Sur 17 Sudeste 0 -- -- 57
2019-06-09 01:00:00 18.9 9 Sudeste 16 Este 0 -- -- 41
2019-06-09 00:00:00 19.6 8 Noroeste 20 Oeste 0 -- -- 25
2019-06-08 23:00:00 20 12 Noroeste 24 Noroeste 0 -- -- 25
2019-06-08 22:00:00 20.2 10 Noroeste 18 Oeste 0 -- -- 27
2019-06-08 21:00:00 22.9 8 Oeste 25 Sudoeste 0 -- -- 23
2019-06-08 20:00:00 25.2 8 Oeste 22 Sudoeste 0 -- -- 21
2019-06-08 19:00:00 25.2 9 Oeste 24 Sudoeste 0 -- -- 23
2019-06-08 18:00:00 25.7 9 Sudoeste 29 Sudoeste 0 -- -- 25
2019-06-08 17:00:00 25.6 10 Sudeste 28 Sur 0 -- -- 28
2019-06-08 16:00:00 25.3 12 Sur 32 Sudeste 0 -- -- 27
2019-06-08 15:00:00 24 10 Sudeste 26 Sudeste 0 -- -- 35
2019-06-08 14:00:00 23 13 Sur 28 Este 0 -- -- 34
2019-06-08 13:00:00 20.9 12 Sudeste 26 Sudeste 0 -- -- 37
2019-06-08 12:00:00 20.4 10 Sudeste 27 Sudeste 0 -- -- 33
2019-06-08 11:00:00 19.3 10 Sudeste 22 Sudeste 0 -- -- 34
2019-06-08 10:00:00 18.2 8 Este 22 Este 0 -- -- 33
2019-06-08 09:00:00 15.9 12 Este 22 Este 0 -- -- 35
2019-06-08 08:00:00 14.2 13 Este 22 Este 0 -- -- 37
2019-06-08 07:00:00 9.8 4 Noroeste 9 Noroeste 0 -- -- 50
2019-06-08 06:00:00 9.3 5 Noroeste 9 Noroeste 0 -- -- 53
2019-06-08 05:00:00 8.8 4 Noroeste 10 Noroeste 0 -- -- 56
2019-06-08 04:00:00 9.4 4 Noroeste 9 Noroeste 0 -- -- 53
2019-06-08 03:00:00 9.8 0 Calma 11 Norte 0 -- -- 51
2019-06-08 02:00:00 10.8 4 Norte 13 Norte 0 -- -- 48
2019-06-08 01:00:00 10.9 5 Norte 13 Norte 0 -- -- 46
2019-06-08 00:00:00 11.7 8 Noroeste 13 Noroeste 0 -- -- 43
2019-06-07 23:00:00 13 6 Noroeste 14 Noroeste 0 -- -- 41
2019-06-07 22:00:00 14.6 8 Noroeste 18 Noroeste 0 -- -- 38
2019-06-07 21:00:00 17.9 7 Noroeste 22 Norte 0 -- -- 31
2019-06-07 20:00:00 18.8 10 Noroeste 23 Norte 0 -- -- 29
2019-06-07 19:00:00 19.5 10 Noroeste 28 Oeste 0 -- -- 28
2019-06-07 18:00:00 18.6 13 Noroeste 30 Noroeste 0 -- -- 29
2019-06-07 17:00:00 18.2 13 Noroeste 30 Oeste 0 -- -- 33
2019-06-07 16:00:00 17.4 14 Noroeste 31 Oeste 0 -- -- 34
2019-06-07 15:00:00 16 15 Noroeste 32 Noroeste 0 -- -- 38
2019-06-07 14:00:00 14.9 18 Oeste 33 Noroeste 0 -- -- 41
2019-06-07 13:00:00 14 17 Noroeste 33 Oeste 0 -- -- 41
2019-06-07 12:00:00 12.8 18 Noroeste 37 Norte 0 -- -- 44
2019-06-07 11:00:00 11.4 17 Noroeste 37 Noroeste 0 -- -- 51
2019-06-07 10:00:00 10.6 22 Noroeste 45 Oeste 0 -- -- 54
2019-06-07 09:00:00 9.6 21 Noroeste 44 Oeste 0 -- -- 58
2019-06-07 08:00:00 8.3 26 Noroeste 43 Oeste 0 -- -- 63
2019-06-07 07:00:00 7.4 21 Noroeste 40 Noroeste 0 -- -- 68
2019-06-07 06:00:00 7.6 18 Noroeste 36 Noroeste 0 -- -- 68
2019-06-07 05:00:00 8.2 17 Noroeste 41 Oeste 1 -- -- 71
2019-06-07 04:00:00 8.6 21 Noroeste 41 Oeste 0.4 -- -- 78
2019-06-07 03:00:00 10.2 17 Noroeste 30 Noroeste 0 -- -- 76
2019-06-07 02:00:00 12.1 13 Sudoeste 33 Sudoeste 0 -- -- 82
2019-06-07 01:00:00 15.2 10 Oeste 27 Sudoeste 0 -- -- 58
2019-06-07 00:00:00 16 10 Sudoeste 21 Oeste 0 -- -- 46
2019-06-06 23:00:00 16.4 5 Sudoeste 19 Sur 0 -- -- 40
2019-06-06 22:00:00 17.1 7 Oeste 32 Sur 0 -- -- 36
2019-06-06 21:00:00 18.8 15 Sudoeste 38 Sur 0 -- -- 33
2019-06-06 20:00:00 20 15 Sudoeste 39 Sur 0 -- -- 31
2019-06-06 19:00:00 20.4 16 Sudoeste 39 Sudoeste 0 -- -- 30
2019-06-06 18:00:00 20.3 18 Sur 36 Sudoeste 0 -- -- 27
2019-06-06 17:00:00 20.1 17 Sur 42 Sur 0 -- -- 28
2019-06-06 16:00:00 19.4 16 Sur 42 Sur 0 -- -- 27
2019-06-06 15:00:00 18.6 16 Sudoeste 35 Sudoeste 0 -- -- 24
2019-06-06 14:00:00 17.9 15 Sur 33 Sur 0 -- -- 27
2019-06-06 13:00:00 17.1 12 Sudoeste 34 Sur 0 -- -- 31
2019-06-06 12:00:00 16.5 11 Sur 24 Sudoeste 0 -- -- 34
2019-06-06 11:00:00 15.2 10 Sur 23 Sur 0 -- -- 38
2019-06-06 10:00:00 15.6 6 Sur 18 Sudoeste 0 -- -- 41
2019-06-06 09:00:00 15.9 0 Calma 3 Noroeste 0 -- -- 42
2019-06-06 08:00:00 10.7 0 Calma 5 Norte 0 -- -- 55
2019-06-06 07:00:00 7.4 0 Calma 14 Noroeste 0 -- -- 65
2019-06-06 06:00:00 9 11 Noroeste 23 Noroeste 0 -- -- 58
2019-06-06 05:00:00 9.7 11 Noroeste 25 Oeste 0 -- -- 56
2019-06-06 04:00:00 10.3 12 Noroeste 27 Oeste 0 -- -- 53
2019-06-06 03:00:00 11 16 Noroeste 35 Oeste 0 -- -- 52
2019-06-06 02:00:00 11.9 12 Noroeste 26 Noroeste 0 -- -- 48
2019-06-06 01:00:00 12.7 15 Noroeste 32 Noroeste 0 -- -- 46
2019-06-06 00:00:00 13.2 12 Noroeste 32 Noroeste 0 -- -- 43
2019-06-05 23:00:00 13.9 11 Noroeste 22 Noroeste 0 -- -- 41
2019-06-05 22:00:00 14.3 5 Noroeste 15 Noroeste 0 -- -- 39
2019-06-05 21:00:00 15.5 8 Noroeste 21 Noroeste 0 -- -- 35
2019-06-05 20:00:00 16.9 12 Noroeste 28 Noroeste 0 -- -- 31
2019-06-05 19:00:00 18.1 17 Noroeste 36 Oeste 0 -- -- 28
2019-06-05 18:00:00 17.8 15 Oeste 36 Oeste 0 -- -- 28
2019-06-05 17:00:00 17.9 16 Oeste 35 Oeste 0 -- -- 31
2019-06-05 16:00:00 17.1 19 Oeste 39 Oeste 0 -- -- 33
2019-06-05 15:00:00 16.7 20 Noroeste 41 Oeste 0 -- -- 36
2019-06-05 14:00:00 15.3 24 Noroeste 42 Oeste 0 -- -- 40
2019-06-05 13:00:00 14.5 22 Noroeste 50 Oeste 0 -- -- 46
2019-06-05 12:00:00 13 32 Noroeste 50 Noroeste 0 -- -- 51
2019-06-05 11:00:00 12.2 19 Noroeste 44 Noroeste 0 -- -- 55
2019-06-05 10:00:00 10.7 19 Noroeste 50 Noroeste 0 -- -- 62
2019-06-05 09:00:00 9.6 28 Noroeste 51 Norte 0 -- -- 69
2019-06-05 08:00:00 9.3 21 Noroeste 50 Noroeste 0 -- -- 72
2019-06-05 07:00:00 9.4 22 Noroeste 49 Oeste 0 -- -- 70
2019-06-05 06:00:00 10.1 25 Noroeste 51 Noroeste 0 -- -- 68
2019-06-05 05:00:00 10.4 27 Noroeste 50 Noroeste 0 -- -- 68
2019-06-05 04:00:00 12 26 Noroeste 57 Noroeste 0 -- -- 62
2019-06-05 03:00:00 14.2 21 Noroeste 40 Noroeste 0 -- -- 56
2019-06-05 02:00:00 15.1 19 Noroeste 33 Noroeste 0 -- -- 59
2019-06-05 01:00:00 15.6 13 Noroeste 28 Oeste 0 -- -- 61
2019-06-05 00:00:00 16.3 15 Noroeste 36 Noroeste 0 -- -- 60
2019-06-04 23:00:00 17.2 15 Noroeste 29 Oeste 0 -- -- 59
2019-06-04 22:00:00 18.2 15 Noroeste 32 Noroeste 0 -- -- 56
2019-06-04 21:00:00 20 18 Noroeste 34 Noroeste 0 -- -- 51
2019-06-04 20:00:00 23 12 Sudoeste 40 Sudoeste 0 -- -- 38
2019-06-04 19:00:00 24.5 15 Sudoeste 37 Sur 0 -- -- 32
2019-06-04 18:00:00 25.9 16 Sudoeste 41 Sudoeste 0 -- -- 25
2019-06-04 17:00:00 26 16 Sudoeste 41 Sudoeste 0 -- -- 26
2019-06-04 16:00:00 26.3 15 Sudoeste 36 Sudoeste 0 -- -- 27
2019-06-04 15:00:00 25.2 14 Sudoeste 38 Sudoeste 0 -- -- 33
2019-06-04 14:00:00 24.9 15 Sur 33 Sur 0 -- -- 33
2019-06-04 13:00:00 24.3 14 Sudoeste 32 Sudoeste 0 -- -- 30
2019-06-04 12:00:00 23.4 10 Sudoeste 28 Sudoeste 0 -- -- 30
2019-06-04 11:00:00 22.9 9 Sur 27 Oeste 0 -- -- 35
2019-06-04 10:00:00 22.1 10 Sudoeste 23 Sudoeste 0 -- -- 37
2019-06-04 09:00:00 21.9 2 Sudoeste 10 Sudeste 0 -- -- 47
2019-06-04 08:00:00 18 5 Sudeste 9 Este 0 -- -- 56
2019-06-04 07:00:00 16.1 4 Este 6 Este 0 -- -- 55
2019-06-04 06:00:00 17.2 3 Sudeste 8 Sudeste 0 -- -- 39
2019-06-04 05:00:00 15.6 0 Calma 8 Sur 0 -- -- 41
2019-06-04 04:00:00 18.2 4 Noroeste 8 Oeste 0 -- -- 34
2019-06-04 03:00:00 18.3 3 Norte 8 Norte 0 -- -- 34
2019-06-04 02:00:00 19.8 4 Noroeste 10 Noroeste 0 -- -- 31
2019-06-04 01:00:00 19.1 0 Calma 7 Norte 0 -- -- 33
2019-06-04 00:00:00 21 0 Calma 13 Noroeste 0 -- -- 29
2019-06-03 23:00:00 21.8 6 Noroeste 12 Noroeste -- -- -- 28
2019-06-03 22:00:00 25 4 Noroeste 12 Oeste 0 -- -- 24
2019-06-03 21:00:00 27.7 9 Oeste 24 Oeste 0 -- -- 20
2019-06-03 20:00:00 28.7 9 Oeste 28 Noroeste 0 -- -- 19
2019-06-03 19:00:00 30 13 Oeste 37 Oeste 0 -- -- 17
2019-06-03 18:00:00 30 17 Sudoeste 38 Sudoeste 0 -- -- 17
2019-06-03 17:00:00 30.4 16 Sudoeste 43 Sudoeste 0 -- -- 19
2019-06-03 16:00:00 30.6 15 Sudoeste 44 Sur 0 -- -- 19
2019-06-03 15:00:00 30.4 16 Sudoeste 37 Sudoeste 0 -- -- 20
2019-06-03 14:00:00 30.6 10 Sur 27 Sudoeste 0 -- -- 22
2019-06-03 13:00:00 28.4 9 Sur 22 Sur 0 -- -- 26
2019-06-03 12:00:00 27.9 7 Sur 17 Sur 0 -- -- 26
2019-06-03 11:00:00 27.5 2 Nordeste 6 Sudoeste -- -- -- 29
2019-06-03 10:00:00 23.9 3 Oeste 8 Oeste 0 -- -- 36
2019-06-03 09:00:00 20.7 0 Calma 5 Sudoeste 0 -- -- 42
2019-06-03 08:00:00 17.9 0 Calma 4 Sudoeste 0 -- -- 47
2019-06-03 07:00:00 17.7 0 Calma 9 Noroeste 0 -- -- 44
2019-06-03 06:00:00 18.5 0 Calma 10 Norte 0 -- -- 41
2019-06-03 05:00:00 18.4 6 Noroeste 9 Norte 0 -- -- 39
2019-06-03 04:00:00 20.3 4 Norte 16 Noroeste 0 -- -- 35
2019-06-03 03:00:00 21.9 10 Noroeste 31 Noroeste 0 -- -- 32
2019-06-03 02:00:00 22.9 19 Noroeste 35 Noroeste 0 -- -- 30
2019-06-03 01:00:00 22.2 4 Noroeste 17 Oeste 0 -- -- 32
2019-06-03 00:00:00 24.6 8 Noroeste 18 Noroeste 0 -- -- 27
2019-06-02 23:00:00 25.7 8 Noroeste 17 Noroeste 0 -- -- 26
2019-06-02 22:00:00 25.4 6 Noroeste 9 Oeste 0 -- -- 30
2019-06-02 21:00:00 27.4 4 Noroeste 22 Oeste 0 -- -- 27
2019-06-02 20:00:00 29.4 5 Sudoeste 19 Sur 0 -- -- 23
2019-06-02 19:00:00 30 9 Sur 24 Sudoeste 0 -- -- 21
2019-06-02 18:00:00 32.1 9 Sudoeste 22 Oeste 0 -- -- 20
2019-06-02 17:00:00 32.4 10 Oeste 23 Sur 0 -- -- 20
2019-06-02 16:00:00 31.8 10 Sur 27 Sudoeste 0 -- -- 21
2019-06-02 15:00:00 31.4 9 Sur 22 Sudeste 0 -- -- 21
2019-06-02 14:00:00 30.7 6 Sur 19 Sudeste 0 -- -- 25
2019-06-02 13:00:00 30.3 5 Sur 14 Sudoeste 0 -- -- 25
2019-06-02 12:00:00 27.6 5 Sudeste 12 Sudeste 0 -- -- 28
2019-06-02 11:00:00 26.5 3 Este 15 Este 0 -- -- 29
2019-06-02 10:00:00 23.4 8 Este 16 Este 0 -- -- 32
2019-06-02 09:00:00 22.8 3 Sudeste 7 Norte 0 -- -- 36
2019-06-02 08:00:00 18.3 4 Norte 6 Norte 0 -- -- 43
2019-06-02 07:00:00 15.2 2 Noroeste 7 Norte 0 -- -- 48
2019-06-02 06:00:00 16.3 0 Calma 6 Noroeste 0 -- -- 46
2019-06-02 05:00:00 17.3 0 Calma 11 Oeste 0 -- -- 43
2019-06-02 04:00:00 19.8 3 Sur 13 Noroeste 0 -- -- 37
2019-06-02 03:00:00 18.8 4 Norte 9 Norte 0 -- -- 38
2019-06-02 02:00:00 18.8 4 Norte 9 Norte 0 -- -- 39
2019-06-02 01:00:00 19.1 4 Noroeste 8 Noroeste 0 -- -- 39
2019-06-02 00:00:00 20.3 2 Este 7 Norte 0 -- -- 37
2019-06-01 23:00:00 22.2 0 Calma 8 Norte 0 -- -- 32
2019-06-01 22:00:00 25.4 3 Norte 9 Sudoeste 0 -- -- 27
2019-06-01 21:00:00 30 5 Sudoeste 18 Sudoeste 0 -- -- 20
2019-06-01 20:00:00 31.7 6 Sur 19 Sudoeste 0 -- -- 19
2019-06-01 19:00:00 32.1 6 Oeste 17 Sur 0 -- -- 20
2019-06-01 18:00:00 31.8 8 Sur 21 Sudeste 0 -- -- 21
2019-06-01 17:00:00 32.1 7 Sudoeste 17 Sudoeste 0 -- -- 22
2019-06-01 16:00:00 30.2 7 Sudeste 26 Sur 0 -- -- 24
2019-06-01 15:00:00 29.4 8 Sudeste 19 Sur 0 -- -- 25
2019-06-01 14:00:00 28.9 5 Sudeste 17 Sur 0 -- -- 26
2019-06-01 13:00:00 28.1 5 Sudoeste 15 Sur 0 -- -- 26
2019-06-01 12:00:00 26.4 5 Sudeste 11 Sudoeste 0 -- -- 30
2019-06-01 11:00:00 25.4 3 Sur 13 Sudeste 0 -- -- 33
2019-06-01 10:00:00 24.1 3 Sudeste 7 Sudeste 0 -- -- 34
2019-06-01 09:00:00 21.7 0 Calma 4 Sudoeste 0 -- -- 38
2019-06-01 08:00:00 17.8 0 Calma 3 Este 0 -- -- 43
2019-06-01 07:00:00 13 0 Calma 8 Norte 0 -- -- 53
2019-06-01 06:00:00 13.2 4 Noroeste 8 Norte 0 -- -- 51
2019-06-01 05:00:00 14.3 0 Calma 4 Oeste 0 -- -- 48
2019-06-01 04:00:00 15.9 0 Calma 9 Este 0 -- -- 45
2019-06-01 03:00:00 17 0 Calma 10 Sur 0 -- -- 43
2019-06-01 02:00:00 16.7 2 Noroeste 7 Norte 0 -- -- 45
2019-06-01 01:00:00 18.2 0 Calma 5 Norte 0 -- -- 40
2019-06-01 00:00:00 19.4 0 Calma 4 Norte 0 -- -- 37
2019-05-31 23:00:00 21 0 Calma 8 Norte 0 -- -- 34
2019-05-31 22:00:00 24.8 4 Noroeste 9 Sur 0 -- -- 29
2019-05-31 21:00:00 28.8 5 Sur 14 Sudoeste 0 -- -- 23
2019-05-31 20:00:00 29.6 8 Sudeste 17 Sur 0 -- -- 23
2019-05-31 19:00:00 31.5 4 Sudoeste 21 Sudeste 0 -- -- 22
2019-05-31 18:00:00 30.4 8 Sudeste 17 Sudeste 0 -- -- 23
2019-05-31 17:00:00 31.3 6 Sudoeste 15 Oeste 0 -- -- 22
2019-05-31 16:00:00 30.4 5 Sur 23 Este 0 -- -- 23
2019-05-31 15:00:00 29 8 Sudeste 19 Sudeste 0 -- -- 24
2019-05-31 14:00:00 28.5 6 Sudeste 18 Sudeste 0 -- -- 25
2019-05-31 13:00:00 26.9 6 Sur 15 Sudoeste 0 -- -- 27
2019-05-31 12:00:00 25.7 5 Oeste 14 Sudoeste 0 -- -- 30
2019-05-31 11:00:00 25.3 4 Sudeste 12 Sudeste 0 -- -- 30
2019-05-31 10:00:00 22.4 8 Este 16 Sudeste 0 -- -- 34
2019-05-31 09:00:00 22.3 2 Sur 6 Sudoeste 0 -- -- 38
2019-05-31 08:00:00 17.6 0 Calma 7 Sur 0 -- -- 43
2019-05-31 07:00:00 14 3 Nordeste 7 Este 0 -- -- 51
2019-05-31 06:00:00 14.4 0 Calma 6 Sudoeste 0 -- -- 49
2019-05-31 05:00:00 16.7 3 Norte 11 Norte 0 -- -- 42
2019-05-31 04:00:00 18.3 3 Noroeste 18 Norte 0 -- -- 38
2019-05-31 03:00:00 19 3 Nordeste 21 Este 0 -- -- 36
2019-05-31 02:00:00 20.5 10 Este 28 Nordeste 0 -- -- 31
2019-05-31 01:00:00 21.5 14 Este 24 Este 0 -- -- 26
2019-05-31 00:00:00 20.9 3 Noroeste 18 Este 0 -- -- 27
2019-05-30 23:00:00 23.1 5 Este 17 Este 0 -- -- 26
2019-05-30 22:00:00 24.5 10 Este 19 Nordeste 0 -- -- 25
2019-05-30 21:00:00 27.6 6 Este 15 Este 0 -- -- 23
2019-05-30 20:00:00 29.1 5 Este 17 Este 0 -- -- 22
2019-05-30 19:00:00 29.8 6 Este 19 Este 0 -- -- 23
2019-05-30 18:00:00 28.5 9 Este 24 Este 0 -- -- 24
2019-05-30 17:00:00 28.2 9 Sudeste 23 Este 0 -- -- 25
2019-05-30 16:00:00 28.2 5 Este 20 Este 0 -- -- 25
2019-05-30 15:00:00 27.6 4 Este 19 Sudeste 0 -- -- 25
2019-05-30 14:00:00 25.4 7 Sudeste 21 Sudeste 0 -- -- 27
2019-05-30 13:00:00 24.4 8 Este 16 Sur 0 -- -- 30
2019-05-30 12:00:00 23.9 5 Sur 15 Sudoeste 0 -- -- 30
2019-05-30 11:00:00 23.3 2 Oeste 8 Oeste 0 -- -- 31
2019-05-30 10:00:00 19.9 4 Sudoeste 9 Sudoeste 0 -- -- 37
2019-05-30 09:00:00 18.2 2 Noroeste 4 Noroeste 0 -- -- 41
2019-05-30 08:00:00 13.6 3 Este 10 Noroeste 0 -- -- 54
2019-05-30 07:00:00 8.9 5 Norte 8 Norte 0 -- -- 67
2019-05-30 06:00:00 9.9 0 Calma 7 Noroeste 0 -- -- 65
2019-05-30 05:00:00 10.3 3 Nordeste 7 Sudeste 0 -- -- 64
2019-05-30 04:00:00 11.3 4 Este 9 Norte 0 -- -- 59
2019-05-30 03:00:00 12.5 3 Norte 9 Norte 0 -- -- 56
2019-05-30 02:00:00 14.3 3 Noroeste 9 Sudoeste 0 -- -- 52
2019-05-30 01:00:00 15.9 5 Este 10 Nordeste 0 -- -- 46
2019-05-30 00:00:00 16.2 6 Nordeste 23 Norte 0 -- -- 45
2019-05-29 23:00:00 17.6 11 Noroeste 24 Noroeste 0 -- -- 41
2019-05-29 22:00:00 18.7 8 Noroeste 20 Noroeste 0 -- -- 42
2019-05-29 21:00:00 21.7 11 Noroeste 24 Norte 0 -- -- 36
2019-05-29 20:00:00 23.4 12 Noroeste 32 Norte 0 -- -- 31
2019-05-29 19:00:00 24.5 15 Norte 37 Norte 0 -- -- 28
2019-05-29 18:00:00 25.1 17 Noroeste 35 Norte 0 -- -- 29
2019-05-29 17:00:00 25.8 8 Noroeste 22 Nordeste 0 -- -- 31
2019-05-29 16:00:00 25.1 5 Oeste 19 Sudoeste 0 -- -- 31
2019-05-29 15:00:00 23.7 5 Sudoeste 17 Sudoeste 0 -- -- 32
2019-05-29 14:00:00 21.1 9 Sudeste 18 Sudeste 0 -- -- 36
2019-05-29 13:00:00 19.8 7 Sudeste 15 Sur 0 -- -- 37
2019-05-29 12:00:00 20.3 4 Sudoeste 15 Sur 0 -- -- 35
2019-05-29 11:00:00 17.4 4 Sudeste 11 Sudeste 0 -- -- 41
2019-05-29 10:00:00 15.8 3 Sudoeste 9 Oeste 0 -- -- 44
2019-05-29 09:00:00 13.5 3 Oeste 8 Sudoeste 0 -- -- 50
2019-05-29 08:00:00 11.6 3 Este 6 Sur 0 -- -- 57
2019-05-29 07:00:00 8.2 3 Este 12 Norte 0 -- -- 65
2019-05-29 06:00:00 8.6 0 Calma 5 Este 0 -- -- 64
2019-05-29 05:00:00 8.9 0 Calma 9 Noroeste 0 -- -- 64
2019-05-29 04:00:00 9.7 3 Noroeste 6 Noroeste 0 -- -- 61
2019-05-29 03:00:00 11.4 4 Sudoeste 11 Norte 0 -- -- 55
2019-05-29 02:00:00 12.6 3 Noroeste 10 Este 0 -- -- 53
2019-05-29 01:00:00 13.1 4 Norte 11 Noroeste 0 -- -- 51
2019-05-29 00:00:00 14.4 2 Sudoeste 15 Este 0 -- -- 47
2019-05-28 23:00:00 16 3 Este 19 Norte 0 -- -- 41
2019-05-28 22:00:00 16.7 10 Norte 30 Norte 0 -- -- 40
2019-05-28 21:00:00 19.4 8 Noroeste 35 Noroeste 0 -- -- 34
2019-05-28 20:00:00 19.9 19 Noroeste 32 Noroeste 0 -- -- 33
2019-05-28 19:00:00 21.4 13 Noroeste 37 Noroeste 0 -- -- 30
2019-05-28 18:00:00 22.2 18 Noroeste 36 Noroeste 0 -- -- 29
2019-05-28 17:00:00 23.4 17 Norte 43 Noroeste 0 -- -- 25
2019-05-28 16:00:00 22.7 21 Noroeste 45 Noroeste 0 -- -- 25
2019-05-28 15:00:00 22.5 21 Noroeste 40 Noroeste 0 -- -- 23
2019-05-28 14:00:00 21.7 20 Noroeste 36 Noroeste 0 -- -- 25
2019-05-28 13:00:00 21 17 Noroeste 32 Noroeste 0 -- -- 22
2019-05-28 12:00:00 20.7 10 Noroeste 25 Noroeste 0 -- -- 30
2019-05-28 11:00:00 17.4 13 Oeste 24 Oeste 0 -- -- 46
2019-05-28 10:00:00 16.3 8 Noroeste 32 Noroeste 0 -- -- 50
2019-05-28 09:00:00 13.1 14 Noroeste 28 Noroeste 0 -- -- 63
2019-05-28 08:00:00 10.3 15 Noroeste 29 Noroeste 0 -- -- 74
2019-05-28 07:00:00 10.9 9 Noroeste 24 Norte 0 -- -- 75
2019-05-28 06:00:00 11.5 9 Noroeste 19 Noroeste 0 -- -- 74
2019-05-28 05:00:00 12.5 6 Noroeste 17 Norte 0 -- -- 70
2019-05-28 04:00:00 12.9 5 Noroeste 11 Noroeste 0 -- -- 66
2019-05-28 03:00:00 13.6 2 Norte 8 Sudeste 0 -- -- 63
2019-05-28 02:00:00 16 3 Nordeste 21 Este 0 -- -- 54
2019-05-28 01:00:00 17 10 Este 16 Este 0 -- -- 51
2019-05-28 00:00:00 16.9 2 Este 9 Sudeste 0 -- -- 51
2019-05-27 23:00:00 19.4 3 Noroeste 12 Norte 0 -- -- 44
2019-05-27 22:00:00 20.3 7 Norte 21 Nordeste 0 -- -- 41
2019-05-27 21:00:00 22.7 8 Norte 21 Noroeste 0 -- -- 37
2019-05-27 20:00:00 24.8 11 Norte 28 Norte 0 -- -- 33
2019-05-27 19:00:00 25.4 12 Norte 29 Noroeste 0 -- -- 32
2019-05-27 18:00:00 26.3 9 Norte 23 Nordeste 0 -- -- 30
2019-05-27 17:00:00 25.8 8 Norte 27 Noroeste 0 -- -- 31
2019-05-27 16:00:00 25.2 10 Norte 29 Noroeste 0 -- -- 32
2019-05-27 15:00:00 24.8 14 Noroeste 32 Oeste 0 -- -- 33
2019-05-27 14:00:00 24 14 Noroeste 35 Noroeste 0 -- -- 33
2019-05-27 13:00:00 23.8 14 Noroeste 29 Noroeste 0 -- -- 30
2019-05-27 12:00:00 23.1 11 Noroeste 30 Oeste 0 -- -- 35
2019-05-27 11:00:00 19.9 19 Oeste 30 Oeste 0 -- -- 45
2019-05-27 10:00:00 19.8 12 Oeste 19 Noroeste 0 -- -- 44
2019-05-27 09:00:00 18.3 13 Noroeste 24 Noroeste 0 -- -- 47
2019-05-27 08:00:00 16.1 13 Oeste 21 Oeste 0 -- -- 52
2019-05-27 07:00:00 15 11 Noroeste 18 Oeste 0 -- -- 56
2019-05-27 06:00:00 14 9 Noroeste 17 Noroeste 0 -- -- 58
2019-05-27 05:00:00 12.6 0 Calma 6 Norte 0 -- -- 59
2019-05-27 04:00:00 13.4 0 Calma 11 Este 0 -- -- 55
2019-05-27 03:00:00 14.1 4 Norte 10 Noroeste 0 -- -- 52
2019-05-27 02:00:00 14 3 Norte 11 Norte 0 -- -- 52
2019-05-27 01:00:00 16.2 4 Norte 20 Norte 0 -- -- 46
2019-05-27 00:00:00 16.2 10 Noroeste 19 Norte 0 -- -- 47
2019-05-26 23:00:00 17.6 9 Noroeste 18 Noroeste 0 -- -- 47
2019-05-26 22:00:00 19.3 13 Noroeste 23 Oeste 0 -- -- 41
2019-05-26 21:00:00 21.4 14 Noroeste 30 Norte 0 -- -- 35
2019-05-26 20:00:00 23.8 13 Noroeste 35 Norte 0 -- -- 32
2019-05-26 19:00:00 24.5 12 Noroeste 31 Noroeste 0 -- -- 31
2019-05-26 18:00:00 24.5 16 Noroeste 33 Noroeste 0 -- -- 32
2019-05-26 17:00:00 23.3 17 Noroeste 39 Norte 0 -- -- 36
2019-05-26 16:00:00 24.3 17 Noroeste 33 Norte 0 -- -- 34
2019-05-26 15:00:00 23.7 15 Noroeste 28 Oeste 0 -- -- 33
2019-05-26 14:00:00 24.2 5 Norte 17 Sudeste 0 -- -- 31
2019-05-26 13:00:00 21.8 5 Sudeste 16 Sur 0 -- -- 36
2019-05-26 12:00:00 19.4 7 Este 17 Sudeste 0 -- -- 40
2019-05-26 11:00:00 17.2 10 Sudeste 15 Sudeste 0 -- -- 47
2019-05-26 10:00:00 17.5 2 Nordeste 8 Sudoeste 0 -- -- 46
2019-05-26 09:00:00 14.4 3 Sudeste 6 Este 0 -- -- 56
2019-05-26 08:00:00 12.3 0 Calma 8 Norte 0 -- -- 61
2019-05-26 07:00:00 7.6 0 Calma 5 Norte 0 -- -- 76
2019-05-26 06:00:00 7.7 4 Noroeste 8 Noroeste 0 -- -- 78
2019-05-26 05:00:00 9.2 0 Calma 10 Oeste 0 -- -- 73
2019-05-26 04:00:00 10.1 5 Oeste 14 Oeste 0 -- -- 69
2019-05-26 03:00:00 12.1 8 Noroeste 17 Oeste 0 -- -- 47
2019-05-26 02:00:00 12.9 0 Calma 12 Noroeste 0 -- -- 44
2019-05-26 01:00:00 14.6 5 Oeste 22 Oeste 0 -- -- 39
2019-05-26 00:00:00 14.8 9 Noroeste 24 Norte 0 -- -- 43
2019-05-25 23:00:00 16 9 Noroeste 24 Norte 0 -- -- 41
2019-05-25 22:00:00 16.3 12 Noroeste 38 Noroeste 0 -- -- 45
2019-05-25 21:00:00 18.5 16 Norte 38 Noroeste 0 -- -- 42
2019-05-25 20:00:00 20.7 16 Noroeste 36 Noroeste 0 -- -- 36
2019-05-25 19:00:00 22.5 14 Noroeste 31 Norte 0 -- -- 32
2019-05-25 18:00:00 22.9 13 Norte 29 Norte 0 -- -- 33
2019-05-25 17:00:00 23.5 12 Norte 28 Noroeste 0 -- -- 33
2019-05-25 16:00:00 22.8 10 Norte 25 Noroeste 0 -- -- 34
2019-05-25 15:00:00 22.7 5 Oeste 27 Sur 0 -- -- 33
2019-05-25 14:00:00 20.4 9 Oeste 26 Oeste 0 -- -- 36
2019-05-25 13:00:00 18.3 16 Oeste 27 Noroeste 0 -- -- 43
2019-05-25 12:00:00 16.7 19 Noroeste 29 Noroeste 0 -- -- 46
2019-05-25 11:00:00 16 14 Noroeste 26 Noroeste 0 -- -- 47
2019-05-25 10:00:00 15.2 13 Noroeste 24 Noroeste 0 -- -- 50
2019-05-25 09:00:00 15.2 4 Nordeste 29 Oeste 0 -- -- 50
2019-05-25 08:00:00 11.3 15 Noroeste 29 Noroeste 0 -- -- 64
2019-05-25 07:00:00 7.5 2 Noroeste 6 Noroeste 0 -- -- 74
2019-05-25 06:00:00 8.9 2 Nordeste 23 Noroeste 0 -- -- 69
2019-05-25 05:00:00 10.2 13 Noroeste 27 Noroeste 0 -- -- 67
2019-05-25 04:00:00 9.8 14 Noroeste 30 Noroeste 0 -- -- 69
2019-05-25 03:00:00 10.1 14 Noroeste 23 Noroeste 0 -- -- 68
2019-05-25 02:00:00 10.1 4 Norte 15 Oeste 0 -- -- 65
2019-05-25 01:00:00 11.6 2 Noroeste 15 Este 0 -- -- 59
2019-05-25 00:00:00 12.7 5 Norte 18 Este 0 -- -- 53
2019-05-24 23:00:00 14.6 12 Norte 35 Norte 0 -- -- 45
2019-05-24 22:00:00 14.9 9 Noroeste 37 Noroeste 0 -- -- 46
2019-05-24 21:00:00 17.2 14 Norte 37 Norte 0 -- -- 38
2019-05-24 20:00:00 18.7 14 Noroeste 36 Norte 0 -- -- 38
2019-05-24 19:00:00 20.1 15 Noroeste 33 Norte 0 -- -- 36
2019-05-24 18:00:00 21 17 Norte 36 Noroeste 0 -- -- 33
2019-05-24 17:00:00 20.4 17 Norte 40 Noroeste 0 -- -- 33
2019-05-24 16:00:00 20.8 21 Noroeste 41 Noroeste 0 -- -- 37
2019-05-24 15:00:00 21 17 Noroeste 44 Norte 0 -- -- 36
2019-05-24 14:00:00 19.4 18 Noroeste 40 Noroeste 0 -- -- 45
2019-05-24 13:00:00 15.8 26 Oeste 53 Noroeste 0 -- -- 62
2019-05-24 12:00:00 16.6 20 Noroeste 40 Oeste 0 -- -- 58
2019-05-24 11:00:00 14.8 22 Oeste 39 Oeste 0 -- -- 67
2019-05-24 10:00:00 17.6 15 Noroeste 34 Noroeste 0 -- -- 54
2019-05-24 09:00:00 13.6 21 Oeste 36 Noroeste 0 -- -- 73
2019-05-24 08:00:00 14 16 Noroeste 37 Oeste 0 -- -- 72
2019-05-24 07:00:00 12 21 Oeste 37 Noroeste 0 -- -- 83
2019-05-24 06:00:00 12.8 21 Noroeste 39 Oeste 0 -- -- 78
2019-05-24 05:00:00 13.3 21 Noroeste 46 Noroeste 0 -- -- 72
2019-05-24 04:00:00 14.5 22 Noroeste 46 Noroeste 0 -- -- 61
2019-05-24 03:00:00 15.7 23 Noroeste 44 Noroeste 0 -- -- 57
2019-05-24 02:00:00 16.8 21 Noroeste 44 Noroeste 0 -- -- 52
2019-05-24 01:00:00 18.1 25 Noroeste 41 Noroeste 0 -- -- 47
2019-05-24 00:00:00 19.4 19 Noroeste 34 Noroeste 0 -- -- 39
2019-05-23 23:00:00 20.4 12 Noroeste 24 Noroeste 0 -- -- 32
2019-05-23 22:00:00 21.3 8 Noroeste 20 Noroeste 0 -- -- 34
2019-05-23 21:00:00 23.8 7 Noroeste 19 Noroeste 0 -- -- 33
2019-05-23 20:00:00 24.4 4 Oeste 19 Sur 0 -- -- 28
2019-05-23 19:00:00 24.7 9 Sudoeste 22 Sudoeste 0 -- -- 27
2019-05-23 18:00:00 25 8 Oeste 27 Sur 0 -- -- 26
2019-05-23 17:00:00 27.3 12 Sudoeste 31 Sudoeste 0 -- -- 26
2019-05-23 16:00:00 24.9 11 Sudoeste 32 Sudoeste 0 -- -- 31
2019-05-23 15:00:00 26.1 13 Sudoeste 37 Sudoeste 0 -- -- 30
2019-05-23 14:00:00 24.9 12 Sudoeste 33 Sur 0 -- -- 33
2019-05-23 13:00:00 24.9 8 Sudoeste 27 Sur 0 -- -- 33
2019-05-23 12:00:00 24 5 Sudeste 10 Este 0 -- -- 35
2019-05-23 11:00:00 23.4 2 Norte 10 Sur 0 -- -- 36
2019-05-23 10:00:00 22.7 3 Sur 6 Sudoeste 0 -- -- 37
2019-05-23 09:00:00 18.1 0 Calma 4 Noroeste 0 -- -- 47
2019-05-23 08:00:00 14.5 0 Calma 8 Nordeste 0 -- -- 55
2019-05-23 07:00:00 14.3 2 Nordeste 13 Norte 0 -- -- 54
2019-05-23 06:00:00 16.2 7 Noroeste 19 Noroeste 0 -- -- 51
2019-05-23 05:00:00 15.7 6 Norte 14 Noroeste 0 -- -- 47
2019-05-23 04:00:00 17.7 6 Noroeste 17 Norte 0 -- -- 39
2019-05-23 03:00:00 18 8 Norte 29 Norte 0 -- -- 40
2019-05-23 02:00:00 19 13 Noroeste 30 Noroeste 0 -- -- 38
2019-05-23 01:00:00 15.1 0 Calma 5 Norte 0 -- -- 53
2019-05-23 00:00:00 15.9 2 Noroeste 8 Norte 0 -- -- 52
2019-05-22 23:00:00 17.1 2 Norte 7 Noroeste 0 -- -- 48
2019-05-22 22:00:00 20.4 2 Norte 7 Sudoeste 0 -- -- 39
2019-05-22 21:00:00 23.2 4 Oeste 11 Sudoeste 0 -- -- 33
2019-05-22 20:00:00 25.3 2 Oeste 11 Oeste 0 -- -- 27
2019-05-22 19:00:00 25.6 3 Oeste 20 Oeste 0 -- -- 26
2019-05-22 18:00:00 26.2 5 Oeste 18 Sudoeste 0 -- -- 26
2019-05-22 17:00:00 26.3 10 Oeste 22 Oeste 0 -- -- 25
2019-05-22 16:00:00 26.3 8 Oeste 24 Sudoeste 0 -- -- 26
2019-05-22 15:00:00 25.3 7 Sudoeste 23 Oeste 0 -- -- 27
2019-05-22 14:00:00 24.7 9 Oeste 22 Sudoeste 0 -- -- 28
2019-05-22 13:00:00 23.7 6 Sudeste 17 Sur 0 -- -- 31
2019-05-22 12:00:00 22.6 5 Sudeste 19 Sudeste 0 -- -- 33
2019-05-22 11:00:00 22.3 4 Sur 12 Sudeste 0 -- -- 36
2019-05-22 10:00:00 21.4 3 Sudeste 6 Sudeste 0 -- -- 38
2019-05-22 09:00:00 18.1 0 Calma 3 Sudoeste 0 -- -- 44
2019-05-22 08:00:00 13.3 0 Calma 8 Noroeste 0 -- -- 55
2019-05-22 07:00:00 9.8 4 Noroeste 10 Nordeste 0 -- -- 64
2019-05-22 06:00:00 12.4 4 Nordeste 9 Este 0 -- -- 54
2019-05-22 05:00:00 13.2 2 Norte 17 Noroeste 0 -- -- 52
2019-05-22 04:00:00 14.1 4 Norte 19 Este 0 -- -- 48
2019-05-22 03:00:00 14.4 4 Nordeste 33 Este 0 -- -- 48
2019-05-22 02:00:00 13.9 9 Este 22 Este 0 -- -- 50
2019-05-22 01:00:00 11.6 4 Norte 7 Norte 0 -- -- 60
2019-05-22 00:00:00 12.7 0 Calma 4 Sudeste 0 -- -- 58
2019-05-21 23:00:00 14.9 0 Calma 10 Norte 0 -- -- 50
2019-05-21 22:00:00 15.6 2 Norte 8 Norte 0 -- -- 48
2019-05-21 21:00:00 19.8 3 Noroeste 9 Oeste 0 -- -- 38
2019-05-21 20:00:00 22.6 4 Noroeste 11 Noroeste 0 -- -- 31
2019-05-21 19:00:00 20.6 5 Noroeste 10 Norte 0 -- -- 35
2019-05-21 18:00:00 20.9 4 Norte 11 Norte 0 -- -- 33
2019-05-21 17:00:00 20.8 6 Noroeste 12 Oeste 0 -- -- 32
2019-05-21 16:00:00 21.3 7 Oeste 16 Sudoeste 0 -- -- 31
2019-05-21 15:00:00 21.6 7 Oeste 21 Sudoeste 0 -- -- 30
2019-05-21 14:00:00 22.2 6 Sudoeste 13 Este 0 -- -- 30
2019-05-21 13:00:00 19.3 8 Sudeste 17 Este 0 -- -- 35
2019-05-21 12:00:00 20.9 6 Sudeste 13 Sudoeste 0 -- -- 32
2019-05-21 11:00:00 21.1 3 Este 10 Sur 0 -- -- 32
2019-05-21 10:00:00 19.8 2 Este 6 Este 0 -- -- 34
2019-05-21 09:00:00 14.6 0 Calma 7 Noroeste 0 -- -- 45
2019-05-21 08:00:00 12.2 3 Noroeste 18 Este 0 -- -- 51
2019-05-21 07:00:00 12.3 9 Este 17 Este 0 -- -- 49
2019-05-21 06:00:00 12.2 3 Norte 16 Este 0 -- -- 49
2019-05-21 05:00:00 13.1 3 Norte 21 Noroeste 0 -- -- 43
2019-05-21 04:00:00 13.3 12 Noroeste 28 Oeste 0 -- -- 46
2019-05-21 03:00:00 13.6 12 Noroeste 22 Oeste 0 -- -- 43
2019-05-21 02:00:00 13.9 8 Noroeste 19 Noroeste 0 -- -- 37
2019-05-21 01:00:00 14.3 10 Norte 21 Norte 0 -- -- 38
2019-05-21 00:00:00 14.5 11 Norte 20 Norte 0 -- -- 38